CPA313 ZJHK-VHHH
Flight info
| Callsign | CPA313 |
|---|---|
| Flight time | N/A |
| Altitude | 20700 |
| Route | SAMAS9XD SAMAS A202 SIKOU/N0378F190 V571 CANTO |
| Aircraft | A21N/M-SDE2E3FGHIRWXY/LB1 |
Departure
| Time | 2026-04-26 12:20 |
|---|---|
| Airport | Haikou Meilan International Airport (ZJHK) |
Arrival
| Time | N/A |
|---|---|
| Airport | Hong Kong International Airport (VHHH) |
| Time | Latitude | Longitude | Altitude | Speed | Heading |
|---|---|---|---|---|---|
| 2026-04-26 11:47 | 19.94855 | 110.45840 | 64 ft | 0 kts | 179° |
| 2026-04-26 12:12 | 19.94856 | 110.45840 | 64 ft | 1 kts | 179° |
| 2026-04-26 12:12 | 19.94880 | 110.45840 | 40 ft | 4 kts | 183° |
| 2026-04-26 12:12 | 19.94906 | 110.45844 | 62 ft | 4 kts | 199° |
| 2026-04-26 12:12 | 19.94923 | 110.45852 | 58 ft | 4 kts | 212° |
| 2026-04-26 12:13 | 19.94937 | 110.45862 | 58 ft | 3 kts | 223° |
| 2026-04-26 12:15 | 19.94936 | 110.45862 | 56 ft | 1 kts | 223° |
| 2026-04-26 12:15 | 19.94935 | 110.45843 | 60 ft | 5 kts | 283° |
| 2026-04-26 12:16 | 19.94947 | 110.45804 | 64 ft | 7 kts | 288° |
| 2026-04-26 12:16 | 19.94962 | 110.45747 | 64 ft | 10 kts | 278° |
| 2026-04-26 12:16 | 19.94965 | 110.45666 | 64 ft | 12 kts | 271° |
| 2026-04-26 12:16 | 19.95006 | 110.45587 | 57 ft | 14 kts | 310° |
| 2026-04-26 12:17 | 19.95090 | 110.45533 | 62 ft | 16 kts | 357° |
| 2026-04-26 12:17 | 19.95196 | 110.45509 | 67 ft | 18 kts | 297° |
| 2026-04-26 12:17 | 19.95202 | 110.45374 | 67 ft | 19 kts | 270° |
| 2026-04-26 12:17 | 19.95201 | 110.45229 | 67 ft | 20 kts | 270° |
| 2026-04-26 12:18 | 19.95202 | 110.45075 | 66 ft | 21 kts | 271° |
| 2026-04-26 12:18 | 19.95200 | 110.44912 | 66 ft | 23 kts | 271° |
| 2026-04-26 12:18 | 19.95217 | 110.44828 | 61 ft | 8 kts | 328° |
| 2026-04-26 12:18 | 19.95283 | 110.44821 | 62 ft | 11 kts | 4° |
| 2026-04-26 12:19 | 19.95359 | 110.44866 | 62 ft | 14 kts | 58° |
| 2026-04-26 12:19 | 19.95373 | 110.45032 | 72 ft | 50 kts | 90° |
| 2026-04-26 12:19 | 19.95373 | 110.45689 | 74 ft | 125 kts | 90° |
| 2026-04-26 12:19 | 19.95377 | 110.46852 | 73 ft | 191 kts | 90° |
| 2026-04-26 12:20 | 19.95385 | 110.48400 | 814 ft | 219 kts | 89° |
| 2026-04-26 12:20 | 19.95405 | 110.49494 | 1551 ft | 227 kts | 87° |
| 2026-04-26 12:20 | 19.96279 | 110.51611 | 2614 ft | 248 kts | 46° |
| 2026-04-26 12:20 | 19.97752 | 110.52540 | 3457 ft | 252 kts | 25° |
| 2026-04-26 12:21 | 19.99380 | 110.53288 | 4614 ft | 263 kts | 26° |
| 2026-04-26 12:21 | 20.01079 | 110.54154 | 5782 ft | 275 kts | 28° |
| 2026-04-26 12:21 | 20.02810 | 110.55122 | 6919 ft | 287 kts | 29° |
| 2026-04-26 12:21 | 20.04590 | 110.56178 | 8082 ft | 300 kts | 30° |
| 2026-04-26 12:22 | 20.06439 | 110.57313 | 9295 ft | 313 kts | 31° |
| 2026-04-26 12:22 | 20.08347 | 110.58518 | 10462 ft | 326 kts | 31° |
| 2026-04-26 12:22 | 20.09724 | 110.59283 | 11208 ft | 336 kts | 21° |
| 2026-04-26 12:22 | 20.12068 | 110.59797 | 12128 ft | 360 kts | 1° |
| 2026-04-26 12:23 | 20.14637 | 110.59474 | 12579 ft | 396 kts | 342° |
| 2026-04-26 12:23 | 20.17296 | 110.58461 | 13362 ft | 402 kts | 338° |
| 2026-04-26 12:23 | 20.19916 | 110.57479 | 13847 ft | 401 kts | 341° |
| 2026-04-26 12:23 | 20.22605 | 110.56643 | 14622 ft | 405 kts | 343° |
| 2026-04-26 12:24 | 20.25345 | 110.55888 | 15500 ft | 409 kts | 345° |
| 2026-04-26 12:24 | 20.28135 | 110.55164 | 16414 ft | 414 kts | 345° |
| 2026-04-26 12:24 | 20.30913 | 110.54461 | 17325 ft | 419 kts | 345° |
| 2026-04-26 12:25 | 20.36660 | 110.53007 | 19073 ft | 429 kts | 345° |
| 2026-04-26 12:25 | 20.39582 | 110.52267 | 19823 ft | 434 kts | 344° |
| 2026-04-26 12:25 | 20.42564 | 110.51656 | 20299 ft | 441 kts | 352° |
| 2026-04-26 12:25 | 20.45649 | 110.51784 | 20525 ft | 449 kts | 8° |
| 2026-04-26 12:26 | 20.48652 | 110.52820 | 20612 ft | 461 kts | 24° |
| 2026-04-26 12:26 | 20.51352 | 110.54721 | 20641 ft | 473 kts | 40° |
| 2026-04-26 12:26 | 20.53550 | 110.57385 | 20652 ft | 485 kts | 56° |